Time;durP1;ratioP1;P1;durP2;ratioP2;P2;SDS_P1;SDS_P2;PMS_P1;PMS_P2;Temp;Humidity;BMP_temperature;BMP_pressure;BME280_temperature;BME280_humidity;BME280_pressure;Samples;Min_cycle;Max_cycle;Signal;HPM_P1;HPM_P2
2024/01/02 00:01:34;;;;;;;1.05;0.70;;;7.20;99.90;;;;;;5047280;28;20096;-92
2024/01/02 00:04:01;;;;;;;1.13;0.60;;;7.30;99.90;;;;;;5044324;28;20041;-92
2024/01/02 00:06:26;;;;;;;1.20;0.90;;;7.50;99.90;;;;;;5051887;28;20030;-92
2024/01/02 00:08:52;;;;;;;1.13;0.90;;;7.50;99.90;;;;;;5050329;28;20089;-92
2024/01/02 00:11:18;;;;;;;2.63;1.20;;;7.50;99.90;;;;;;5048879;28;20374;-92
2024/01/02 00:13:44;;;;;;;1.85;0.93;;;7.60;99.90;;;;;;5045895;28;20026;-92
2024/01/02 00:16:09;;;;;;;2.95;0.82;;;7.60;99.90;;;;;;5041499;28;20080;-91
2024/01/02 00:18:35;;;;;;;1.08;0.77;;;7.60;99.90;;;;;;5038641;28;20064;-92
2024/01/02 00:21:02;;;;;;;1.55;0.82;;;7.60;99.90;;;;;;5037925;28;20056;-93
2024/01/02 00:23:28;;;;;;;1.77;0.80;;;7.60;99.90;;;;;;5037788;28;20021;-92
2024/01/02 00:25:53;;;;;;;1.23;0.70;;;7.70;99.90;;;;;;5042869;28;20029;-92
2024/01/02 00:28:19;;;;;;;1.67;0.60;;;7.70;99.90;;;;;;5039097;28;20029;-93
2024/01/02 00:30:45;;;;;;;1.90;0.63;;;7.70;99.90;;;;;;5039836;28;20025;-93
2024/01/02 00:33:11;;;;;;;3.40;0.90;;;7.80;99.90;;;;;;5036679;28;20053;-93
2024/01/02 00:35:36;;;;;;;6.43;2.83;;;7.90;99.90;;;;;;5038276;28;20456;-91
2024/01/02 00:38:03;;;;;;;6.93;1.13;;;8.00;99.90;;;;;;5037669;28;20025;-93
2024/01/02 00:40:29;;;;;;;3.60;1.17;;;8.10;99.90;;;;;;5037114;28;20026;-92
2024/01/02 00:42:54;;;;;;;7.35;1.90;;;8.20;99.90;;;;;;5036566;28;20065;-92
2024/01/02 00:45:20;;;;;;;3.22;1.40;;;8.20;99.90;;;;;;5035054;28;20036;-92
2024/01/02 00:47:46;;;;;;;7.18;1.20;;;8.30;99.90;;;;;;5036318;28;20124;-91
2024/01/02 00:50:12;;;;;;;5.40;2.15;;;8.30;99.90;;;;;;5036735;28;20076;-91
2024/01/02 00:52:38;;;;;;;5.32;1.40;;;8.40;99.90;;;;;;5035062;28;20064;-92
2024/01/02 00:55:04;;;;;;;3.53;1.20;;;8.40;99.90;;;;;;5035506;28;20503;-91
2024/01/02 00:57:31;;;;;;;4.68;1.10;;;8.40;99.90;;;;;;5034480;28;20033;-91
2024/01/02 00:59:58;;;;;;;8.75;2.78;;;8.40;99.90;;;;;;5036391;28;20108;-90
2024/01/02 01:02:23;;;;;;;4.05;1.20;;;8.50;99.90;;;;;;5036048;28;20030;-91
2024/01/02 01:04:49;;;;;;;7.38;1.25;;;8.50;99.90;;;;;;5035978;28;20021;-90
2024/01/02 01:07:15;;;;;;;8.05;1.45;;;8.50;99.90;;;;;;5035386;28;20018;-92
2024/01/02 01:09:41;;;;;;;10.13;1.45;;;8.50;99.90;;;;;;5041996;28;20032;-90
2024/01/02 01:12:08;;;;;;;7.75;1.48;;;8.60;99.90;;;;;;5038631;28;20037;-90
2024/01/02 01:14:34;;;;;;;7.22;1.13;;;8.60;99.90;;;;;;5042838;28;20056;-89
2024/01/02 01:17:00;;;;;;;8.23;1.52;;;8.70;99.90;;;;;;5038111;28;20017;-90
2024/01/02 01:19:26;;;;;;;5.60;1.38;;;8.70;99.90;;;;;;5032601;28;20032;-90
2024/01/02 01:21:51;;;;;;;6.75;1.70;;;8.80;99.90;;;;;;5032612;28;20017;-91
2024/01/02 01:24:17;;;;;;;10.02;1.73;;;8.80;99.90;;;;;;5032286;28;20131;-89
2024/01/02 01:26:44;;;;;;;11.35;1.70;;;8.80;99.90;;;;;;5032127;28;20128;-89
2024/01/02 01:29:10;;;;;;;3.65;1.00;;;8.80;99.90;;;;;;5033218;28;20060;-90
2024/01/02 01:31:35;;;;;;;8.93;1.42;;;8.90;99.90;;;;;;5033129;28;20060;-91
2024/01/02 01:34:01;;;;;;;9.25;1.20;;;8.90;99.90;;;;;;5032756;28;20046;-91
2024/01/02 01:36:27;;;;;;;9.60;1.90;;;8.90;99.90;;;;;;5033587;28;20563;-89
2024/01/02 01:38:53;;;;;;;4.45;0.85;;;8.90;99.90;;;;;;5032455;28;20026;-90
2024/01/02 01:41:18;;;;;;;10.43;1.42;;;8.90;99.90;;;;;;5032388;28;20424;-90
2024/01/02 01:43:46;;;;;;;7.88;2.00;;;8.90;99.90;;;;;;5033582;28;20079;-91
2024/01/02 01:46:15;;;;;;;5.45;1.38;;;9.00;99.90;;;;;;5032669;28;20067;-89
2024/01/02 01:48:41;;;;;;;6.53;1.20;;;9.00;99.90;;;;;;5033990;28;20380;-90
2024/01/02 01:51:08;;;;;;;12.43;1.63;;;9.00;99.90;;;;;;5032888;28;20082;-89
2024/01/02 01:53:35;;;;;;;11.93;1.98;;;9.00;99.90;;;;;;5032728;28;20120;-90
2024/01/02 01:56:01;;;;;;;10.43;1.73;;;9.10;99.90;;;;;;5032791;28;20473;-89
2024/01/02 01:58:28;;;;;;;12.05;1.38;;;9.10;99.90;;;;;;5032538;28;20033;-89
2024/01/02 02:00:53;;;;;;;11.20;1.60;;;9.00;99.90;;;;;;5033945;28;20029;-90
2024/01/02 02:03:20;;;;;;;12.23;1.65;;;9.10;99.90;;;;;;5032340;28;20489;-88
2024/01/02 02:05:46;;;;;;;11.90;1.60;;;9.10;99.90;;;;;;5031994;28;20028;-90
2024/01/02 02:08:12;;;;;;;8.63;1.63;;;9.10;99.90;;;;;;5031997;28;20488;-90
2024/01/02 02:10:37;;;;;;;14.13;1.55;;;9.20;99.90;;;;;;5032479;28;20022;-90
2024/01/02 02:13:03;;;;;;;8.57;1.20;;;9.20;99.90;;;;;;5032151;28;20037;-91
2024/01/02 02:15:38;;;;;;;10.15;1.77;;;9.20;99.90;;;;;;5033019;28;20025;-89
2024/01/02 02:18:05;;;;;;;21.77;2.95;;;9.20;99.90;;;;;;5032203;28;20116;-90
2024/01/02 02:20:30;;;;;;;16.77;2.17;;;9.20;99.90;;;;;;5031684;28;20028;-90
2024/01/02 02:22:56;;;;;;;10.93;2.22;;;9.20;99.90;;;;;;5031913;28;20112;-89
2024/01/02 02:25:22;;;;;;;17.05;2.35;;;9.20;99.90;;;;;;5032277;28;20029;-90
2024/01/02 02:27:48;;;;;;;7.57;1.73;;;9.20;99.90;;;;;;5032482;28;20022;-91
2024/01/02 02:30:14;;;;;;;10.82;1.75;;;9.20;99.90;;;;;;5032880;28;20421;-91
2024/01/02 02:32:40;;;;;;;14.82;1.55;;;9.20;99.90;;;;;;5033396;28;20053;-91
2024/01/02 02:35:06;;;;;;;15.70;2.30;;;9.20;99.90;;;;;;5032541;28;20029;-90
2024/01/02 02:37:32;;;;;;;12.60;1.90;;;9.20;99.90;;;;;;5032560;28;20044;-90
2024/01/02 02:39:58;;;;;;;18.45;2.28;;;9.20;99.90;;;;;;5033300;28;20044;-91
2024/01/02 02:42:24;;;;;;;16.52;1.80;;;9.20;99.90;;;;;;5033751;28;20076;-89
2024/01/02 02:44:50;;;;;;;12.32;2.00;;;9.30;99.90;;;;;;5033940;28;20064;-91
2024/01/02 02:47:17;;;;;;;13.73;2.35;;;9.20;99.90;;;;;;5034001;28;20026;-90
2024/01/02 02:49:43;;;;;;;18.20;2.65;;;9.20;99.90;;;;;;5033038;28;20036;-90
2024/01/02 02:52:09;;;;;;;20.25;3.50;;;9.20;99.90;;;;;;5033060;28;20034;-89
2024/01/02 02:54:34;;;;;;;16.52;2.30;;;9.20;99.90;;;;;;5032822;28;20057;-89
2024/01/02 02:57:01;;;;;;;17.02;2.45;;;9.20;99.90;;;;;;5032229;28;20040;-90
2024/01/02 02:59:29;;;;;;;14.23;2.42;;;9.10;99.90;;;;;;5032204;28;20480;-90
2024/01/02 03:01:54;;;;;;;26.58;2.92;;;9.10;99.90;;;;;;5032892;28;20025;-88
2024/01/02 03:04:20;;;;;;;14.00;3.13;;;9.10;99.90;;;;;;5032815;28;20504;-89
2024/01/02 03:06:46;;;;;;;17.40;2.30;;;9.00;99.90;;;;;;5032158;28;20025;-90
2024/01/02 03:09:11;;;;;;;18.98;2.85;;;9.00;99.90;;;;;;5032437;28;20037;-90
2024/01/02 03:11:37;;;;;;;19.48;3.30;;;9.00;99.90;;;;;;5032107;28;20048;-90
2024/01/02 03:14:03;;;;;;;10.85;1.77;;;9.00;99.90;;;;;;5031926;28;20125;-89
2024/01/02 03:16:30;;;;;;;17.52;1.92;;;8.90;99.90;;;;;;5032320;28;20476;-90
2024/01/02 03:18:55;;;;;;;13.43;2.63;;;8.90;99.90;;;;;;5032057;28;20036;-90
2024/01/02 03:21:27;;;;;;;18.25;2.40;;;8.90;99.90;;;;;;5033468;28;20022;-89
2024/01/02 03:23:56;;;;;;;24.70;3.33;;;8.90;99.90;;;;;;5036734;28;20033;-90
2024/01/02 03:26:22;;;;;;;14.07;2.17;;;8.80;99.90;;;;;;5036113;28;20555;-91
2024/01/02 03:28:49;;;;;;;13.00;2.20;;;8.80;99.90;;;;;;5034443;28;20060;-90
2024/01/02 03:31:14;;;;;;;17.40;2.05;;;8.80;99.90;;;;;;5033094;28;20033;-90
2024/01/02 03:33:41;;;;;;;19.23;2.47;;;8.80;99.90;;;;;;5032861;28;20045;-90
2024/01/02 03:36:17;;;;;;;22.48;3.42;;;8.80;99.90;;;;;;5032253;28;20029;-90
2024/01/02 03:38:49;;;;;;;15.20;1.90;;;8.80;99.90;;;;;;5033323;28;20032;-91
2024/01/02 03:41:16;;;;;;;14.43;2.20;;;8.80;99.90;;;;;;5032872;28;20033;-90
2024/01/02 03:43:42;;;;;;;17.58;3.08;;;8.70;99.90;;;;;;5035965;28;20026;-90
2024/01/02 03:46:08;;;;;;;14.70;2.58;;;8.70;99.90;;;;;;5036049;28;20030;-90
2024/01/02 03:48:34;;;;;;;21.50;2.45;;;8.70;99.90;;;;;;5036009;28;20022;-90
2024/01/02 03:51:03;;;;;;;27.55;3.05;;;8.70;99.90;;;;;;5034916;28;20028;-90
2024/01/02 03:53:29;;;;;;;17.50;2.75;;;8.70;99.90;;;;;;5035086;28;20088;-90
2024/01/02 03:55:56;;;;;;;17.33;2.08;;;8.70;99.90;;;;;;5036661;28;20025;-90
2024/01/02 03:58:22;;;;;;;12.75;1.83;;;8.60;99.90;;;;;;5034859;28;20469;-90
2024/01/02 04:00:48;;;;;;;20.45;2.40;;;8.60;99.90;;;;;;5034253;28;20453;-89
2024/01/02 04:03:14;;;;;;;12.77;1.88;;;8.70;99.90;;;;;;5034338;28;20021;-90
2024/01/02 04:05:40;;;;;;;13.93;1.85;;;8.60;99.90;;;;;;5048187;28;20036;-90
2024/01/02 04:08:06;;;;;;;16.45;2.13;;;8.60;99.90;;;;;;5055505;28;20040;-90
2024/01/02 04:10:31;;;;;;;17.08;2.20;;;8.60;99.90;;;;;;5054173;28;20047;-90
2024/01/02 04:12:57;;;;;;;16.83;2.05;;;8.60;99.90;;;;;;5054785;28;20059;-90
2024/01/02 04:15:22;;;;;;;24.52;3.20;;;8.60;99.90;;;;;;5054406;28;20480;-90
2024/01/02 04:17:50;;;;;;;18.63;2.10;;;8.60;99.90;;;;;;5055400;28;20040;-90
2024/01/02 04:20:16;;;;;;;17.73;2.10;;;8.60;99.90;;;;;;5054067;28;20025;-90
2024/01/02 04:22:42;;;;;;;18.67;2.08;;;8.60;99.90;;;;;;5054196;28;20111;-90
2024/01/02 04:25:09;;;;;;;20.27;2.30;;;8.60;99.90;;;;;;5054457;28;20029;-91
2024/01/02 04:27:34;;;;;;;12.50;2.42;;;8.60;99.90;;;;;;5054334;28;20047;-90
2024/01/02 04:30:00;;;;;;;17.52;2.03;;;8.60;99.90;;;;;;5054429;28;20025;-92
2024/01/02 04:32:26;;;;;;;15.23;1.88;;;8.60;99.90;;;;;;5054193;28;20061;-90
2024/01/02 04:34:53;;;;;;;18.38;2.20;;;8.60;99.90;;;;;;5054264;28;20519;-90
2024/01/02 04:37:19;;;;;;;21.70;2.25;;;8.60;99.90;;;;;;5053928;28;20040;-91
2024/01/02 04:39:44;;;;;;;17.92;3.95;;;8.60;99.90;;;;;;5054577;28;20060;-90
2024/01/02 04:42:10;;;;;;;22.65;2.75;;;8.60;99.90;;;;;;5053912;28;20064;-90
2024/01/02 04:44:36;;;;;;;21.23;2.95;;;8.60;99.90;;;;;;5054017;28;20626;-90
2024/01/02 04:47:02;;;;;;;17.80;2.50;;;8.60;99.90;;;;;;5055282;28;20025;-90
2024/01/02 04:49:29;;;;;;;19.10;2.42;;;8.60;99.90;;;;;;5055255;28;20377;-89
2024/01/02 04:51:57;;;;;;;20.38;2.88;;;8.60;99.90;;;;;;5055486;28;20062;-90
2024/01/02 04:54:25;;;;;;;19.90;2.10;;;8.60;99.90;;;;;;5057550;28;20021;-90
2024/01/02 04:56:51;;;;;;;17.35;2.47;;;8.60;99.90;;;;;;5063293;28;20028;-90
2024/01/02 04:59:17;;;;;;;19.30;4.30;;;8.60;99.90;;;;;;5070142;28;20029;-90
2024/01/02 05:01:42;;;;;;;13.90;2.22;;;8.60;99.90;;;;;;5058849;28;20027;-90
2024/01/02 05:04:08;;;;;;;14.77;1.92;;;8.50;99.90;;;;;;5055583;28;20021;-89
2024/01/02 05:06:34;;;;;;;9.68;1.63;;;8.50;99.90;;;;;;5036928;28;20036;-89
2024/01/02 05:08:59;;;;;;;8.57;1.70;;;8.50;99.90;;;;;;5054852;28;20033;-89
2024/01/02 05:11:25;;;;;;;10.95;2.08;;;8.50;99.90;;;;;;5054095;28;20491;-90
2024/01/02 05:13:51;;;;;;;15.82;1.75;;;8.40;99.90;;;;;;5053697;28;20136;-92
2024/01/02 05:16:16;;;;;;;15.02;2.22;;;8.40;99.90;;;;;;5053522;28;20032;-91
2024/01/02 05:18:42;;;;;;;13.73;1.77;;;8.40;99.90;;;;;;5053504;28;20052;-90
2024/01/02 05:21:08;;;;;;;13.48;1.77;;;8.40;99.90;;;;;;5053349;28;20120;-90
2024/01/02 05:23:34;;;;;;;12.35;1.85;;;8.40;99.90;;;;;;5053088;28;20391;-91
2024/01/02 05:25:59;;;;;;;14.45;1.83;;;8.30;99.90;;;;;;5053246;28;20158;-90
2024/01/02 05:28:26;;;;;;;15.63;2.10;;;8.30;99.90;;;;;;5053708;28;20044;-91
2024/01/02 05:30:52;;;;;;;14.32;1.85;;;8.30;99.90;;;;;;5056667;28;20021;-91
2024/01/02 05:33:18;;;;;;;11.18;1.90;;;8.30;99.90;;;;;;5053918;28;20055;-92
2024/01/02 05:35:43;;;;;;;14.98;1.80;;;8.30;99.90;;;;;;5053885;28;20079;-91
2024/01/02 05:38:09;;;;;;;13.63;1.77;;;8.20;99.90;;;;;;5054481;28;20510;-92
2024/01/02 05:40:35;;;;;;;19.40;4.10;;;8.30;99.90;;;;;;5056588;28;20021;-89
2024/01/02 05:43:00;;;;;;;14.75;1.90;;;8.30;99.90;;;;;;5040468;28;20075;-91
2024/01/02 05:45:26;;;;;;;10.40;2.15;;;8.30;99.90;;;;;;5056523;28;20083;-91
2024/01/02 05:47:52;;;;;;;22.67;2.55;;;8.40;99.90;;;;;;5054876;28;20515;-91
2024/01/02 05:50:18;;;;;;;13.00;1.88;;;8.30;99.90;;;;;;5055999;28;20032;-90
2024/01/02 05:52:44;;;;;;;16.75;1.85;;;8.40;99.90;;;;;;5053486;28;20140;-91
2024/01/02 05:55:10;;;;;;;18.70;2.88;;;8.40;99.90;;;;;;5053232;28;20025;-89
2024/01/02 05:57:36;;;;;;;16.25;2.08;;;8.40;99.90;;;;;;5053882;28;20033;-90
2024/01/02 06:00:02;;;;;;;13.98;1.60;;;8.40;99.90;;;;;;5053345;28;20182;-89
2024/01/02 06:02:28;;;;;;;10.75;1.88;;;8.30;99.90;;;;;;5053096;28;20025;-90
2024/01/02 06:04:53;;;;;;;18.67;3.80;;;8.40;99.90;;;;;;5052650;28;20029;-90
2024/01/02 06:07:25;;;;;;;13.52;2.17;;;8.40;99.90;;;;;;5053827;28;20090;-90
2024/01/02 06:09:51;;;;;;;20.33;2.72;;;8.40;99.90;;;;;;5053503;28;20021;-91
2024/01/02 06:12:17;;;;;;;18.15;3.20;;;8.30;99.90;;;;;;5052895;28;20411;-91
2024/01/02 06:14:47;;;;;;;15.63;1.85;;;8.30;99.90;;;;;;5053317;28;20017;-91
2024/01/02 06:17:13;;;;;;;;;;;8.30;99.90;;;;;;5053602;28;20103;-92
2024/01/02 06:19:39;;;;;;;12.15;1.80;;;8.40;99.90;;;;;;5052636;28;19913;-90
2024/01/02 06:22:05;;;;;;;12.65;2.40;;;8.30;99.90;;;;;;5053710;28;20021;-90
2024/01/02 06:24:31;;;;;;;9.27;1.67;;;8.30;99.90;;;;;;5053780;28;20032;-91
2024/01/02 06:26:57;;;;;;;14.23;2.38;;;8.40;99.90;;;;;;5052781;28;20037;-90
2024/01/02 06:29:25;;;;;;;10.32;2.13;;;8.40;99.90;;;;;;5052769;28;20021;-91
2024/01/02 06:31:53;;;;;;;21.40;2.17;;;8.40;99.90;;;;;;5053134;28;20120;-91
2024/01/02 06:34:18;;;;;;;23.23;3.25;;;8.40;99.90;;;;;;5053317;28;20049;-91
2024/01/02 06:36:44;;;;;;;22.48;2.08;;;8.40;99.90;;;;;;5052336;28;20036;-91
2024/01/02 06:39:10;;;;;;;10.38;1.95;;;8.40;99.90;;;;;;5035600;28;20037;-92
2024/01/02 06:41:36;;;;;;;21.23;2.30;;;8.30;99.90;;;;;;5052534;28;20543;-91
2024/01/02 06:44:01;;;;;;;13.35;2.08;;;8.40;99.90;;;;;;5052499;28;20439;-91
2024/01/02 06:46:27;;;;;;;18.83;2.63;;;8.40;99.90;;;;;;5059395;28;20032;-90
2024/01/02 06:48:53;;;;;;;21.40;2.83;;;8.40;99.90;;;;;;5059032;28;20075;-91
2024/01/02 06:51:18;;;;;;;19.48;2.45;;;8.40;99.90;;;;;;5056085;28;20044;-89
2024/01/02 06:53:44;;;;;;;19.92;2.65;;;8.40;99.90;;;;;;5055445;28;20100;-90
2024/01/02 06:56:11;;;;;;;15.10;2.55;;;8.50;99.90;;;;;;5054203;28;20041;-90
2024/01/02 06:58:44;;;;;;;18.85;2.85;;;8.50;99.90;;;;;;5019340;28;20041;-90
2024/01/02 07:01:14;;;;;;;23.38;5.15;;;8.50;99.90;;;;;;5052495;28;20025;-90
2024/01/02 07:03:40;;;;;;;17.45;3.72;;;8.50;99.90;;;;;;5052954;28;20029;-90
2024/01/02 07:06:06;;;;;;;17.83;2.28;;;8.50;99.90;;;;;;5053263;28;20087;-90
2024/01/02 07:08:32;;;;;;;22.58;2.53;;;8.50;99.90;;;;;;5052160;28;20030;-90
2024/01/02 07:10:57;;;;;;;21.48;3.00;;;8.40;99.90;;;;;;5052592;28;20025;-90
2024/01/02 07:13:23;;;;;;;15.52;2.33;;;8.40;99.90;;;;;;5052320;28;20067;-91
2024/01/02 07:15:49;;;;;;;21.73;2.35;;;8.40;99.90;;;;;;5052998;28;20037;-90
2024/01/02 07:18:16;;;;;;;22.90;3.72;;;8.40;99.90;;;;;;5054943;28;20033;-91
2024/01/02 07:20:44;;;;;;;25.00;3.25;;;8.50;99.90;;;;;;5056296;28;20033;-90
2024/01/02 07:23:10;;;;;;;31.00;3.25;;;8.60;99.90;;;;;;5057121;28;20048;-90
2024/01/02 07:25:36;;;;;;;24.15;2.35;;;8.60;99.90;;;;;;5056222;28;20029;-90
2024/01/02 07:28:01;;;;;;;20.52;3.10;;;8.70;99.90;;;;;;5057128;28;20060;-91
2024/01/02 07:30:27;;;;;;;30.88;3.80;;;8.70;99.90;;;;;;5058153;28;20028;-90
2024/01/02 07:32:53;;;;;;;19.30;2.47;;;8.70;99.90;;;;;;5044549;28;20085;-91
2024/01/02 07:35:19;;;;;;;28.73;4.43;;;8.70;99.90;;;;;;5037784;28;20361;-91
2024/01/02 07:37:46;;;;;;;20.05;3.65;;;8.80;99.90;;;;;;5036371;28;20071;-91
2024/01/02 07:40:13;;;;;;;23.77;3.08;;;8.70;99.90;;;;;;5035927;28;20504;-88
2024/01/02 07:42:39;;;;;;;18.27;2.58;;;8.70;99.90;;;;;;5036417;28;20057;-90
2024/01/02 07:45:05;;;;;;;18.27;2.40;;;8.70;99.90;;;;;;5037748;28;20358;-90
2024/01/02 07:47:31;;;;;;;31.27;3.08;;;8.70;99.90;;;;;;5036063;28;20036;-91
2024/01/02 07:49:57;;;;;;;17.05;2.38;;;8.70;99.90;;;;;;5035595;28;20400;-91
2024/01/02 07:52:23;;;;;;;27.88;2.65;;;8.60;99.90;;;;;;5018666;28;20638;-91
2024/01/02 07:54:48;;;;;;;27.58;3.50;;;8.60;99.90;;;;;;5036702;28;20061;-90
2024/01/02 07:57:14;;;;;;;33.47;4.22;;;8.70;99.90;;;;;;5035379;28;20465;-90
2024/01/02 07:59:40;;;;;;;28.17;4.80;;;8.60;99.90;;;;;;5034643;28;20522;-90
2024/01/02 08:02:06;;;;;;;28.45;3.28;;;8.60;99.90;;;;;;5035677;28;20032;-92
2024/01/02 08:04:31;;;;;;;22.67;3.40;;;8.60;99.90;;;;;;5034666;28;20021;-91
2024/01/02 08:06:59;;;;;;;14.82;2.75;;;8.60;99.90;;;;;;5035629;28;20029;-92
2024/01/02 08:09:25;;;;;;;30.05;2.83;;;8.60;99.90;;;;;;5034955;28;20036;-91
2024/01/02 08:11:50;;;;;;;24.33;3.10;;;8.60;99.90;;;;;;5034891;28;20037;-90
2024/01/02 08:14:16;;;;;;;17.80;2.17;;;8.60;99.90;;;;;;5035811;28;20044;-91
2024/01/02 08:16:42;;;;;;;27.33;4.45;;;8.60;99.90;;;;;;5035863;28;20425;-91
2024/01/02 08:19:07;;;;;;;30.27;3.72;;;8.60;99.90;;;;;;5035128;28;20060;-91
2024/01/02 08:21:34;;;;;;;31.23;3.30;;;8.60;99.90;;;;;;5035174;28;20365;-91
2024/01/02 08:23:59;;;;;;;12.05;1.70;;;8.60;99.90;;;;;;5034559;28;20129;-92
2024/01/02 08:26:25;;;;;;;23.40;3.42;;;8.60;99.90;;;;;;5035009;28;20448;-91
2024/01/02 08:28:51;;;;;;;28.63;4.25;;;8.50;99.90;;;;;;5036035;28;20022;-91
2024/01/02 08:31:17;;;;;;;22.95;2.45;;;8.50;99.90;;;;;;5035246;28;20119;-91
2024/01/02 08:33:43;;;;;;;30.05;12.30;;;8.50;99.90;;;;;;5035041;28;20497;-89
2024/01/02 08:36:11;;;;;;;32.78;7.85;;;8.50;99.90;;;;;;5035503;28;20021;-89
2024/01/02 08:38:37;;;;;;;29.13;5.20;;;8.50;99.90;;;;;;5035706;28;20100;-90
2024/01/02 08:41:07;;;;;;;56.72;17.92;;;8.50;99.90;;;;;;5041879;28;20026;-92
2024/01/02 08:43:32;;;;;;;30.33;5.38;;;8.50;99.90;;;;;;5044233;28;20036;-89
2024/01/02 08:45:58;;;;;;;29.73;4.07;;;8.50;99.90;;;;;;5050231;28;20081;-89
2024/01/02 08:48:24;;;;;;;25.25;4.03;;;8.50;99.90;;;;;;5043891;28;20033;-90
2024/01/02 08:50:50;;;;;;;28.58;4.57;;;8.50;99.90;;;;;;5039764;28;20061;-90
2024/01/02 08:53:16;;;;;;;25.27;4.13;;;8.50;99.90;;;;;;5036616;28;20037;-88
2024/01/02 08:55:44;;;;;;;15.77;3.47;;;8.50;99.90;;;;;;5036278;28;20028;-89
2024/01/02 08:58:12;;;;;;;13.70;2.88;;;8.50;99.90;;;;;;5034703;28;20036;-89
2024/01/02 09:00:37;;;;;;;20.35;2.92;;;8.50;99.90;;;;;;5034318;28;20026;-88
2024/01/02 09:03:03;;;;;;;33.08;3.35;;;8.50;99.90;;;;;;5033898;28;20032;-90
2024/01/02 09:05:29;;;;;;;15.07;2.35;;;8.50;99.90;;;;;;5034937;28;20025;-88
2024/01/02 09:07:55;;;;;;;20.05;3.35;;;8.50;99.90;;;;;;5031658;28;20024;-90
2024/01/02 09:10:26;;;;;;;26.27;3.58;;;8.40;99.90;;;;;;5030122;28;20153;-89
2024/01/02 09:12:52;;;;;;;27.00;3.40;;;8.40;99.90;;;;;;5030782;28;20033;-90
2024/01/02 09:15:18;;;;;;;17.98;2.38;;;8.50;99.90;;;;;;5033794;28;20032;-89
2024/01/02 09:17:44;;;;;;;20.85;3.15;;;8.50;99.90;;;;;;5034717;28;20055;-90
2024/01/02 09:20:11;;;;;;;37.05;3.15;;;8.50;99.90;;;;;;5033729;28;20026;-91
2024/01/02 09:22:37;;;;;;;20.83;2.70;;;8.50;99.90;;;;;;5034866;28;20029;-91
2024/01/02 09:25:04;;;;;;;21.77;2.95;;;8.50;99.90;;;;;;5033059;28;20025;-90
2024/01/02 09:27:30;;;;;;;21.33;3.33;;;8.50;99.90;;;;;;5035065;28;20036;-90
2024/01/02 09:29:59;;;;;;;24.98;2.83;;;8.50;99.90;;;;;;5033583;28;20025;-89
2024/01/02 09:32:26;;;;;;;24.63;3.33;;;8.50;99.90;;;;;;5021589;28;20065;-90
2024/01/02 09:34:52;;;;;;;20.13;3.13;;;8.50;99.90;;;;;;5037297;28;20033;-90
2024/01/02 09:37:18;;;;;;;22.42;2.90;;;8.50;99.90;;;;;;5031980;28;20040;-90
2024/01/02 09:39:44;;;;;;;28.90;3.38;;;8.50;99.90;;;;;;5026649;28;20018;-90
2024/01/02 09:42:31;;;;;;;27.55;2.97;;;8.50;99.90;;;;;;5030978;28;20457;-91
2024/01/02 09:45:21;;;;;;;23.52;3.33;;;8.50;99.90;;;;;;5023704;28;20030;-91
2024/01/02 09:48:29;;;;;;;36.83;3.60;;;8.50;99.90;;;;;;5036292;28;20049;-90
2024/01/02 09:51:29;;;;;;;19.48;2.55;;;8.50;99.90;;;;;;5037010;28;20124;-91
2024/01/02 09:54:15;;;;;;;20.70;2.97;;;8.60;99.90;;;;;;5039055;28;20037;-90
2024/01/02 09:57:20;;;;;;;22.77;4.05;;;8.50;99.90;;;;;;5038937;28;20021;-91
2024/01/02 10:00:13;;;;;;;30.42;4.10;;;8.50;99.90;;;;;;5039489;28;20021;-92
2024/01/02 10:02:58;;;;;;;26.65;2.92;;;8.60;99.90;;;;;;5031242;28;20051;-90
2024/01/02 10:05:27;;;;;;;22.17;3.38;;;8.60;99.90;;;;;;5040348;28;20021;-92
2024/01/02 10:08:24;;;;;;;26.95;2.90;;;8.60;99.90;;;;;;5040748;28;20028;-91
2024/01/02 10:11:35;;;;;;;22.77;3.90;;;8.60;99.90;;;;;;5040441;28;20028;-91
2024/01/02 10:14:14;;;;;;;28.95;3.50;;;8.60;99.90;;;;;;5034720;28;20037;-90
2024/01/02 10:17:05;;;;;;;20.13;2.90;;;8.60;99.90;;;;;;5032855;28;20040;-90
2024/01/02 10:19:52;;;;;;;21.00;3.50;;;8.60;99.90;;;;;;5035057;28;20377;-90
2024/01/02 10:22:47;;;;;;;31.63;5.15;;;8.60;99.90;;;;;;5031871;28;20030;-90
2024/01/02 10:25:20;;;;;;;24.25;3.25;;;8.50;99.90;;;;;;4955588;28;20035;-91
2024/01/02 10:28:12;;;;;;;25.92;3.70;;;8.50;99.90;;;;;;4938692;29;20039;-92
2024/01/02 10:31:19;;;;;;;19.48;3.05;;;8.50;99.90;;;;;;4955111;29;20024;-90
2024/01/02 10:34:10;;;;;;;29.13;4.50;;;8.50;99.90;;;;;;4937188;29;20058;-91
2024/01/02 10:36:41;;;;;;;23.90;3.00;;;8.50;99.90;;;;;;4955387;28;20145;-93
2024/01/02 10:39:27;;;;;;;20.25;2.90;;;8.50;99.90;;;;;;4972484;28;20038;-90
2024/01/02 10:42:15;;;;;;;28.38;3.35;;;8.50;99.90;;;;;;4971483;28;20039;-91
2024/01/02 10:44:59;;;;;;;23.10;4.35;;;8.50;99.90;;;;;;4973048;28;20031;-91
2024/01/02 10:47:53;;;;;;;23.42;3.65;;;8.50;99.90;;;;;;4957501;28;20023;-91
2024/01/02 10:50:29;;;;;;;18.25;3.22;;;8.50;99.90;;;;;;4934062;29;20043;-89
2024/01/02 10:53:26;;;;;;;23.05;5.15;;;8.50;99.90;;;;;;4921275;29;20055;-91
2024/01/02 10:56:09;;;;;;;25.45;4.50;;;8.40;99.90;;;;;;4922367;29;20559;-90
2024/01/02 10:58:48;;;;;;;20.92;3.10;;;8.50;99.90;;;;;;4937628;29;20036;-91
2024/01/02 11:01:17;;;;;;;18.35;3.10;;;8.50;99.90;;;;;;4953250;28;20101;-92
2024/01/02 11:03:50;;;;;;;23.70;3.50;;;8.40;99.90;;;;;;5008623;28;20128;-91
2024/01/02 11:06:28;;;;;;;28.15;3.97;;;8.40;99.90;;;;;;4993718;28;20035;-91
2024/01/02 11:09:10;;;;;;;29.50;4.25;;;8.40;99.90;;;;;;4984536;28;20067;-91
2024/01/02 11:11:40;;;;;;;29.17;3.47;;;8.40;99.90;;;;;;4996548;28;20066;-91
2024/01/02 11:14:08;;;;;;;27.05;3.58;;;8.40;99.90;;;;;;5002083;28;20667;-91
2024/01/02 11:16:40;;;;;;;20.38;3.55;;;8.40;99.90;;;;;;4984373;28;20038;-92
2024/01/02 11:19:08;;;;;;;30.55;3.50;;;8.40;99.90;;;;;;4976196;28;20128;-91
2024/01/02 11:21:40;;;;;;;26.42;5.40;;;8.40;99.90;;;;;;4988490;28;20031;-92
2024/01/02 11:24:08;;;;;;;19.52;4.95;;;8.40;99.90;;;;;;4993635;28;20045;-90
2024/01/02 11:26:42;;;;;;;20.70;3.63;;;8.40;99.90;;;;;;5001870;28;20159;-92
2024/01/02 11:29:30;;;;;;;27.73;4.32;;;8.40;99.90;;;;;;5049585;28;20025;-91
2024/01/02 11:32:03;;;;;;;21.67;3.85;;;8.30;99.90;;;;;;5040068;28;20032;-92
2024/01/02 11:34:57;;;;;;;18.17;3.55;;;8.40;99.90;;;;;;5036265;28;20045;-93
2024/01/02 11:37:44;;;;;;;22.55;3.63;;;8.30;99.90;;;;;;5017484;28;20030;-93
2024/01/02 11:40:23;;;;;;;17.65;3.30;;;8.40;99.90;;;;;;5024350;28;20080;-93
2024/01/02 11:43:08;;;;;;;21.13;3.25;;;8.30;99.90;;;;;;5036727;28;20025;-91
2024/01/02 11:45:36;;;;;;;17.45;3.83;;;8.40;99.90;;;;;;5023427;28;20025;-92
2024/01/02 11:48:39;;;;;;;20.10;3.92;;;8.30;99.90;;;;;;5045588;28;20112;-91
2024/01/02 11:51:18;;;;;;;21.27;4.45;;;8.40;99.90;;;;;;5033572;28;20385;-92
2024/01/02 11:54:18;;;;;;;22.52;3.20;;;8.40;99.90;;;;;;5051369;28;20048;-92
2024/01/02 11:56:44;;;;;;;18.88;2.75;;;8.40;99.90;;;;;;5029805;28;20180;-92
2024/01/02 11:59:29;;;;;;;18.75;3.33;;;8.40;99.90;;;;;;5041780;28;20053;-93
2024/01/02 12:02:21;;;;;;;24.73;3.25;;;8.40;99.90;;;;;;5037429;28;20037;-92
2024/01/02 12:05:19;;;;;;;12.90;2.33;;;8.40;99.90;;;;;;5025870;28;20030;-93
2024/01/02 12:07:50;;;;;;;15.45;2.60;;;8.30;99.90;;;;;;5032532;28;20033;-93
2024/01/02 12:10:18;;;;;;;12.75;2.33;;;8.30;99.90;;;;;;5036315;28;20067;-92
2024/01/02 12:12:55;;;;;;;9.07;2.28;;;8.30;99.90;;;;;;5026504;28;20045;-91
2024/01/02 12:15:36;;;;;;;12.10;2.30;;;8.30;99.90;;;;;;5033839;28;20032;-92
2024/01/02 12:18:03;;;;;;;8.50;2.05;;;8.30;99.90;;;;;;5023941;28;20020;-92
2024/01/02 12:20:37;;;;;;;8.80;1.85;;;8.30;99.90;;;;;;5037414;28;20492;-92
2024/01/02 12:23:05;;;;;;;6.40;1.42;;;8.30;99.90;;;;;;5033862;28;20064;-90
2024/01/02 12:25:31;;;;;;;5.18;1.10;;;8.30;99.90;;;;;;5038356;28;20091;-93
2024/01/02 12:28:02;;;;;;;4.00;1.55;;;8.30;99.90;;;;;;5040640;28;20042;-90
2024/01/02 12:30:41;;;;;;;4.35;1.20;;;8.30;99.90;;;;;;5035993;28;20037;-91
2024/01/02 12:33:35;;;;;;;9.82;1.55;;;8.30;99.90;;;;;;5050638;28;20133;-92
2024/01/02 12:36:19;;;;;;;2.72;1.15;;;8.30;99.90;;;;;;5037164;28;20029;-91
2024/01/02 12:38:51;;;;;;;4.55;1.10;;;8.30;99.90;;;;;;5033083;28;20033;-91
2024/01/02 12:41:41;;;;;;;6.57;1.00;;;8.20;99.90;;;;;;5029634;28;20029;-93
2024/01/02 12:44:07;;;;;;;3.53;1.52;;;8.20;99.90;;;;;;5021176;28;20030;-91
2024/01/02 12:47:05;;;;;;;2.60;0.70;;;8.20;99.90;;;;;;5023148;28;20030;-92
2024/01/02 12:49:34;;;;;;;3.28;0.90;;;8.10;99.90;;;;;;5032382;28;20054;-91
2024/01/02 12:52:06;;;;;;;4.53;0.93;;;8.10;99.90;;;;;;5023937;28;20036;-90
2024/01/02 12:54:40;;;;;;;3.78;1.00;;;8.10;99.90;;;;;;5027253;28;20057;-92
2024/01/02 12:57:07;;;;;;;1.38;0.70;;;8.10;99.90;;;;;;5024932;28;20570;-92
2024/01/02 12:59:35;;;;;;;6.45;1.23;;;8.00;99.90;;;;;;5038733;28;20017;-92
2024/01/02 13:02:06;;;;;;;2.45;1.00;;;8.00;99.90;;;;;;5027545;28;20180;-92
2024/01/02 13:04:35;;;;;;;;;;;8.00;99.90;;;;;;5034680;28;20021;-91